Time;durP1;ratioP1;P1;durP2;ratioP2;P2;SDS_P1;SDS_P2;PMS_P1;PMS_P2;Temp;Humidity;BMP_temperature;BMP_pressure;BME280_temperature;BME280_humidity;BME280_pressure;Samples;Min_cycle;Max_cycle;Signal;HPM_P1;HPM_P2
2022/12/27 00:00:51;;;;;;;6.50;1.42;;;;;;;1.78;100.00;101041.91;4933209;29;20048;-82
2022/12/27 00:03:17;;;;;;;11.00;1.63;;;;;;;1.78;100.00;101046.47;4932947;29;20119;-82
2022/12/27 00:05:45;;;;;;;8.05;1.38;;;;;;;1.71;100.00;101038.97;4930950;29;20037;-82
2022/12/27 00:08:12;;;;;;;9.07;1.40;;;;;;;1.72;100.00;101045.22;4932138;29;20369;-81
2022/12/27 00:10:38;;;;;;;5.75;1.15;;;;;;;1.79;100.00;101054.38;4900504;29;20372;-82
2022/12/27 00:13:04;;;;;;;4.95;1.42;;;;;;;1.80;100.00;101041.78;4932653;29;20050;-82
2022/12/27 00:15:33;;;;;;;8.50;1.42;;;;;;;1.77;100.00;101059.06;4933083;29;20064;-81
2022/12/27 00:17:59;;;;;;;3.25;1.15;;;;;;;1.83;100.00;101055.75;4914333;29;20042;-82
2022/12/27 00:20:25;;;;;;;4.22;1.15;;;;;;;1.73;100.00;101054.97;4910199;29;20118;-81
2022/12/27 00:22:51;;;;;;;7.03;1.50;;;;;;;1.74;100.00;101064.72;4932143;29;20040;-82
2022/12/27 00:25:17;;;;;;;8.73;1.70;;;;;;;1.78;100.00;101059.91;4931918;29;20047;-81
2022/12/27 00:27:43;;;;;;;6.95;1.40;;;;;;;1.73;100.00;101063.03;4932658;29;20024;-82
2022/12/27 00:30:10;;;;;;;7.28;1.67;;;;;;;1.65;100.00;101068.31;4931778;29;20047;-82
2022/12/27 00:32:36;;;;;;;4.93;1.30;;;;;;;1.60;100.00;101070.63;4915947;29;20067;-83
2022/12/27 00:35:03;;;;;;;6.43;1.58;;;;;;;1.63;100.00;101071.16;4932041;29;20051;-82
2022/12/27 00:37:29;;;;;;;9.88;1.60;;;;;;;1.65;100.00;101076.41;4915761;29;20087;-83
2022/12/27 00:39:55;;;;;;;9.35;1.67;;;;;;;1.66;100.00;101078.09;4931668;29;20538;-81
2022/12/27 00:42:22;;;;;;;6.00;1.48;;;;;;;1.63;100.00;101068.47;4932290;29;20055;-82
2022/12/27 00:44:48;;;;;;;8.50;2.22;;;;;;;1.66;100.00;101073.53;4931798;29;20506;-83
2022/12/27 00:47:14;;;;;;;9.45;1.60;;;;;;;1.63;100.00;101073.00;4932334;29;20083;-82
2022/12/27 00:49:40;;;;;;;7.70;1.60;;;;;;;1.66;100.00;101078.91;4931478;29;20042;-82
2022/12/27 00:52:06;;;;;;;7.05;1.77;;;;;;;1.65;100.00;101079.91;4932629;29;20067;-81
2022/12/27 00:54:32;;;;;;;5.90;1.48;;;;;;;1.69;100.00;101083.16;4930450;29;20043;-81
2022/12/27 00:56:58;;;;;;;11.88;1.63;;;;;;;1.71;100.00;101083.88;4932483;29;20744;-81
2022/12/27 00:59:24;;;;;;;6.07;1.55;;;;;;;1.66;100.00;101091.53;4932479;29;20032;-82
2022/12/27 01:01:50;;;;;;;10.02;1.98;;;;;;;1.65;100.00;101095.22;4931644;29;20039;-82
2022/12/27 01:04:16;;;;;;;5.32;1.67;;;;;;;1.71;100.00;101100.00;4933662;29;20051;-82
2022/12/27 01:06:42;;;;;;;8.00;2.30;;;;;;;1.75;100.00;101106.78;4917237;29;20040;-82
2022/12/27 01:09:09;;;;;;;8.25;2.10;;;;;;;1.78;100.00;101090.34;4918201;29;20578;-81
2022/12/27 01:11:35;;;;;;;6.97;2.13;;;;;;;1.75;100.00;101098.72;4935357;29;20046;-82
2022/12/27 01:14:04;;;;;;;6.68;2.55;;;;;;;1.78;100.00;101106.47;4934537;29;20044;-81
2022/12/27 01:16:31;;;;;;;10.10;2.45;;;;;;;1.77;100.00;101095.88;4935390;29;20036;-82
2022/12/27 01:18:58;;;;;;;8.88;2.10;;;;;;;1.85;100.00;101126.41;4931984;29;20264;-82
2022/12/27 01:21:26;;;;;;;11.77;2.83;;;;;;;1.89;100.00;101137.75;4918719;29;20035;-81
2022/12/27 01:23:52;;;;;;;7.68;2.20;;;;;;;1.82;100.00;101134.78;4934058;29;20532;-81
2022/12/27 01:26:21;;;;;;;12.88;2.92;;;;;;;1.68;100.00;101138.78;4935888;29;20403;-80
2022/12/27 01:28:48;;;;;;;11.38;3.08;;;;;;;1.60;100.00;101138.69;4935978;29;20047;-81
2022/12/27 01:31:20;;;;;;;11.48;3.83;;;;;;;1.51;100.00;101134.19;4936143;29;20032;-80
2022/12/27 01:33:46;;;;;;;8.82;3.83;;;;;;;1.44;100.00;101124.00;4933826;29;20111;-81
2022/12/27 01:36:16;;;;;;;9.57;3.53;;;;;;;1.47;100.00;101133.63;4931189;29;20109;-81
2022/12/27 01:38:43;;;;;;;13.00;3.97;;;;;;;1.38;100.00;101129.97;4936049;29;20063;-81
2022/12/27 01:44:42;;;;;;;9.98;4.22;;;;;;;1.37;100.00;101122.88;4935041;29;20479;-81
2022/12/27 01:47:27;;;;;;;11.63;4.35;;;;;;;1.31;100.00;101127.97;4917611;29;20537;-81
2022/12/27 01:50:20;;;;;;;11.95;4.40;;;;;;;1.35;100.00;101134.78;4934996;29;20531;-82
2022/12/27 01:52:52;;;;;;;13.55;4.35;;;;;;;1.34;100.00;101136.63;4929919;29;20513;-81
2022/12/27 01:55:31;;;;;;;9.70;3.75;;;;;;;1.29;100.00;101128.97;4933925;29;20032;-81
2022/12/27 01:58:03;;;;;;;10.32;4.30;;;;;;;1.33;100.00;101124.16;4933664;29;20044;-81
2022/12/27 02:00:30;;;;;;;11.23;4.45;;;;;;;1.34;100.00;101125.03;4929025;29;20042;-82
2022/12/27 02:02:57;;;;;;;10.63;4.00;;;;;;;1.31;100.00;101127.97;4932855;29;20404;-82
2022/12/27 02:05:25;;;;;;;10.40;4.07;;;;;;;1.27;100.00;101130.97;4917854;29;20770;-82
2022/12/27 02:08:01;;;;;;;10.35;3.95;;;;;;;1.25;100.00;101142.88;4916260;29;20508;-82
2022/12/27 02:10:28;;;;;;;10.85;4.47;;;;;;;1.26;100.00;101141.88;4934991;29;20035;-82
2022/12/27 02:12:55;;;;;;;11.27;4.13;;;;;;;1.27;100.00;101143.56;4934697;29;20050;-83
2022/12/27 02:15:21;;;;;;;12.30;4.32;;;;;;;1.41;100.00;101150.34;4934720;29;20138;-82
2022/12/27 02:17:47;;;;;;;9.13;3.80;;;;;;;1.47;100.00;101147.06;4917582;29;20051;-82
2022/12/27 02:20:21;;;;;;;15.18;5.28;;;;;;;1.39;100.00;101147.78;4934044;29;20485;-82
2022/12/27 02:26:24;;;;;;;13.13;4.18;;;;;;;1.48;100.00;101172.13;4917229;29;20059;-82
2022/12/27 02:29:03;;;;;;;8.65;3.55;;;;;;;1.56;100.00;101159.63;4931911;29;20043;-83
2022/12/27 02:31:44;;;;;;;12.75;4.07;;;;;;;1.56;100.00;101161.50;4932025;29;20087;-82
2022/12/27 02:34:37;;;;;;;8.63;3.80;;;;;;;1.53;100.00;101164.47;4934823;29;20036;-82
2022/12/27 02:37:08;;;;;;;8.23;3.38;;;;;;;1.47;100.00;101160.50;4931870;29;20500;-82
2022/12/27 02:39:39;;;;;;;13.65;3.45;;;;;;;1.48;100.00;101162.22;4933860;29;20031;-82
2022/12/27 02:53:40;;;;;;;10.40;3.80;;;;;;;1.43;100.00;101157.25;4918180;29;20048;-81
2022/12/27 02:59:26;;;;;;;9.40;3.10;;;;;;;1.42;100.00;101154.72;4917217;29;20555;-82
2022/12/27 03:03:19;;;;;;;9.85;3.10;;;;;;;1.40;100.00;101148.66;4932359;29;20072;-81
2022/12/27 03:05:44;;;;;;;11.77;2.85;;;;;;;1.39;100.00;101158.53;4913286;29;20088;-81
2022/12/27 03:08:25;;;;;;;8.63;2.60;;;;;;;1.35;100.00;101156.31;4930835;29;22111;-81
2022/12/27 03:16:56;;;;;;;6.90;2.58;;;;;;;1.42;100.00;101160.94;4933929;29;20225;-80
2022/12/27 03:25:28;;;;;;;8.68;2.65;;;;;;;1.36;100.00;101160.69;4933015;29;20047;-81
2022/12/27 03:33:49;;;;;;;9.90;2.55;;;;;;;1.27;100.00;101159.69;4930395;29;20044;-81
2022/12/27 03:39:25;;;;;;;8.73;2.22;;;;;;;1.39;100.00;101163.09;4916461;29;20077;-81
2022/12/27 03:44:42;;;;;;;10.57;3.13;;;;;;;1.33;100.00;101160.97;4932522;29;20479;-81
2022/12/27 03:47:56;;;;;;;10.20;2.80;;;;;;;1.38;100.00;101164.91;4932110;29;20139;-82
2022/12/27 03:50:49;;;;;;;14.20;2.60;;;;;;;1.34;100.00;101160.00;4925369;29;20059;-82
2022/12/27 03:53:27;;;;;;;8.45;2.70;;;;;;;1.33;100.00;101158.28;4930154;29;20357;-82
2022/12/27 03:55:54;;;;;;;10.80;2.80;;;;;;;1.41;100.00;101161.09;4915513;29;20071;-83
2022/12/27 03:58:20;;;;;;;9.48;3.08;;;;;;;1.49;100.00;101163.06;4932965;29;20387;-82
2022/12/27 04:00:46;;;;;;;9.57;3.10;;;;;;;1.51;100.00;101166.47;4914662;29;20062;-81
2022/12/27 04:03:12;;;;;;;9.18;3.15;;;;;;;1.48;100.00;101164.06;4932386;29;20046;-81
2022/12/27 04:05:38;;;;;;;6.70;3.15;;;;;;;1.43;100.00;101156.44;4932603;29;20035;-80
2022/12/27 04:35:34;;;;;;;12.45;3.70;;;;;;;1.75;100.00;101157.06;4930690;29;20085;-81
2022/12/27 04:38:00;;;;;;;9.98;4.40;;;;;;;1.77;100.00;101157.75;4931381;29;20035;-81
2022/12/27 04:57:03;;;;;;;9.65;4.20;;;;;;;2.23;100.00;101177.53;4932911;29;20031;-81
2022/12/27 05:02:15;;;;;;;9.90;4.32;;;;;;;2.38;100.00;101179.75;4932831;29;20063;-81
2022/12/27 05:04:41;;;;;;;14.18;5.07;;;;;;;2.51;100.00;101184.78;4931060;29;20051;-82
2022/12/27 05:15:27;;;;;;;10.82;4.22;;;;;;;2.80;100.00;101179.22;4930942;29;20130;-82
2022/12/27 05:17:55;;;;;;;9.52;4.40;;;;;;;2.82;100.00;101177.22;4931856;29;20063;-82
2022/12/27 05:20:21;;;;;;;11.55;4.55;;;;;;;2.86;100.00;101188.53;4931859;29;20114;-82
2022/12/27 05:25:38;;;;;;;9.00;4.03;;;;;;;2.89;100.00;101188.22;4932184;29;20036;-82
2022/12/27 05:28:09;;;;;;;10.82;4.55;;;;;;;2.96;100.00;101192.00;4931672;29;20119;-82
2022/12/27 05:30:38;;;;;;;12.23;4.60;;;;;;;2.95;100.00;101184.94;4930804;29;20043;-81
2022/12/27 05:33:04;;;;;;;12.50;4.40;;;;;;;2.99;100.00;101202.50;4914642;29;20036;-82
2022/12/27 05:35:30;;;;;;;9.73;4.82;;;;;;;3.03;100.00;101189.53;4931270;29;20043;-81
2022/12/27 05:37:57;;;;;;;17.33;4.85;;;;;;;3.08;100.00;101189.06;4932300;29;20075;-80
2022/12/27 05:40:24;;;;;;;10.77;4.85;;;;;;;3.10;100.00;101200.56;4915112;29;20054;-82
2022/12/27 05:42:51;;;;;;;13.15;5.22;;;;;;;3.13;100.00;101192.16;4932238;29;20099;-81
2022/12/27 05:45:17;;;;;;;10.48;5.22;;;;;;;3.14;100.00;101200.09;4931270;29;20059;-80
2022/12/27 05:47:44;;;;;;;10.23;4.68;;;;;;;3.15;100.00;101204.50;4931704;29;20034;-81
2022/12/27 05:50:10;;;;;;;11.02;4.30;;;;;;;3.20;100.00;101209.44;4915347;29;20091;-82
2022/12/27 05:52:37;;;;;;;12.52;4.55;;;;;;;3.22;100.00;101215.50;4935003;29;20116;-81
2022/12/27 05:55:03;;;;;;;10.10;5.03;;;;;;;3.24;100.00;101227.00;4918139;29;20543;-82
2022/12/27 05:57:29;;;;;;;12.05;4.68;;;;;;;3.30;100.00;101233.59;4918088;29;20036;-82
2022/12/27 05:59:56;;;;;;;10.00;4.78;;;;;;;3.28;100.00;101239.16;4934659;29;20141;-82
2022/12/27 06:02:22;;;;;;;18.27;4.90;;;;;;;3.26;100.00;101243.88;4933975;29;20395;-82
2022/12/27 06:04:48;;;;;;;10.35;5.28;;;;;;;3.25;100.00;101226.00;4916969;29;20063;-81
2022/12/27 06:07:15;;;;;;;10.98;4.68;;;;;;;3.25;100.00;101231.38;4935287;29;20110;-82
2022/12/27 06:09:41;;;;;;;14.05;4.68;;;;;;;3.20;100.00;101225.63;4918297;29;20052;-83
2022/12/27 06:12:07;;;;;;;12.25;4.47;;;;;;;3.22;100.00;101245.19;4935909;29;20042;-85
2022/12/27 06:14:34;;;;;;;10.68;5.05;;;;;;;3.21;100.00;101237.22;4917510;29;20051;-82
2022/12/27 06:17:00;;;;;;;9.20;4.60;;;;;;;3.26;100.00;101249.25;4934672;29;20042;-82
2022/12/27 06:19:26;;;;;;;10.35;4.88;;;;;;;3.22;100.00;101242.47;4935063;29;20039;-83
2022/12/27 06:21:52;;;;;;;13.90;4.63;;;;;;;3.24;100.00;101237.78;4934249;29;20118;-82
2022/12/27 06:24:18;;;;;;;8.88;4.60;;;;;;;3.24;100.00;101248.56;4902115;29;20043;-83
2022/12/27 06:26:44;;;;;;;10.63;4.55;;;;;;;3.20;100.00;101244.50;4936951;29;20035;-84
2022/12/27 06:29:13;;;;;;;8.18;4.65;;;;;;;3.14;100.00;101256.72;4920821;29;20040;-82
2022/12/27 06:31:40;;;;;;;8.10;4.72;;;;;;;3.16;100.00;101246.63;4941819;29;20415;-81
2022/12/27 06:34:06;;;;;;;15.15;5.00;;;;;;;3.16;100.00;101259.25;4924948;29;20321;-81
2022/12/27 06:36:32;;;;;;;8.23;5.00;;;;;;;3.16;100.00;101259.25;4928184;29;20036;-83
2022/12/27 06:38:59;;;;;;;10.52;5.20;;;;;;;3.15;100.00;101249.47;4946018;29;20039;-83
2022/12/27 06:41:25;;;;;;;16.90;6.05;;;;;;;3.11;100.00;101259.72;4943306;29;20051;-82
2022/12/27 06:43:56;;;;;;;10.32;5.00;;;;;;;3.19;100.00;101248.19;4944127;29;20036;-82
2022/12/27 06:46:23;;;;;;;9.85;5.07;;;;;;;3.22;100.00;101261.34;4918082;29;20497;-83
2022/12/27 06:48:50;;;;;;;9.88;4.75;;;;;;;3.24;100.00;101274.66;4939610;29;20389;-81
2022/12/27 06:51:17;;;;;;;10.70;5.10;;;;;;;3.19;100.00;101256.28;4941689;29;20036;-82
2022/12/27 06:53:45;;;;;;;8.88;4.82;;;;;;;3.14;100.00;101253.16;4939529;29;20047;-83
2022/12/27 06:56:17;;;;;;;12.35;5.20;;;;;;;3.10;100.00;101262.56;4927249;29;20043;-82
2022/12/27 06:58:44;;;;;;;10.30;5.13;;;;;;;3.05;100.00;101279.22;4947205;29;20044;-83
2022/12/27 07:01:17;;;;;;;10.52;4.93;;;;;;;2.98;100.00;101280.81;4929231;29;20088;-83
2022/12/27 07:03:47;;;;;;;10.25;5.18;;;;;;;2.96;100.00;101289.06;4946957;29;20042;-83
2022/12/27 07:06:13;;;;;;;10.88;5.20;;;;;;;2.99;100.00;101277.09;4938205;29;20222;-83
2022/12/27 07:08:39;;;;;;;10.98;5.55;;;;;;;3.02;100.00;101291.16;4924682;29;20126;-83
2022/12/27 07:11:08;;;;;;;14.30;5.93;;;;;;;3.07;100.00;101288.00;4926257;29;20048;-82
2022/12/27 07:13:36;;;;;;;14.25;5.68;;;;;;;3.08;100.00;101281.63;4945899;29;20167;-83
2022/12/27 07:16:06;;;;;;;;;;;;;;;3.06;100.00;101298.94;4942141;29;20035;-81
2022/12/27 07:18:33;;;;;;;12.07;5.78;;;;;;;3.06;100.00;101298.94;4937633;29;20026;-82
2022/12/27 07:21:03;;;;;;;9.20;5.63;;;;;;;3.00;100.00;101293.16;4926122;29;20048;-83
2022/12/27 07:23:29;;;;;;;9.85;5.38;;;;;;;2.98;100.00;101299.66;4939346;29;20057;-81
2022/12/27 07:25:59;;;;;;;12.65;5.72;;;;;;;2.96;100.00;101299.84;4917790;29;20047;-81
2022/12/27 07:28:26;;;;;;;10.80;5.53;;;;;;;3.01;100.00;101320.94;4939274;29;20205;-81
2022/12/27 07:30:52;;;;;;;9.50;5.10;;;;;;;3.07;100.00;101306.88;4941640;29;20051;-83
2022/12/27 07:33:18;;;;;;;11.85;5.72;;;;;;;3.12;100.00;101322.56;4940779;29;20036;-83
2022/12/27 07:35:45;;;;;;;9.55;5.22;;;;;;;3.12;100.00;101317.19;4928189;29;20036;-80
2022/12/27 07:38:11;;;;;;;9.50;5.22;;;;;;;3.10;100.00;101324.59;4930370;29;20028;-80
2022/12/27 07:40:37;;;;;;;11.98;5.20;;;;;;;3.09;100.00;101331.84;4931408;29;20404;-80
2022/12/27 07:43:03;;;;;;;10.30;4.97;;;;;;;3.16;100.00;101340.16;4935484;29;20155;-79
2022/12/27 07:45:30;;;;;;;10.98;5.60;;;;;;;3.16;100.00;101356.31;4938883;29;20046;-79
2022/12/27 07:47:56;;;;;;;11.40;5.32;;;;;;;3.17;100.00;101347.25;4931947;29;20036;-79
2022/12/27 07:50:22;;;;;;;12.95;4.68;;;;;;;3.20;100.00;101356.88;4928117;29;20064;-79
2022/12/27 07:52:49;;;;;;;13.00;4.80;;;;;;;3.24;100.00;101351.06;4932839;29;20506;-79
2022/12/27 07:55:15;;;;;;;8.45;4.13;;;;;;;3.20;100.00;101360.44;4929253;29;20456;-78
2022/12/27 07:57:41;;;;;;;10.38;4.20;;;;;;;3.14;100.00;101356.50;4915457;29;20044;-79
2022/12/27 08:00:08;;;;;;;8.75;3.97;;;;;;;3.21;100.00;101364.84;4932600;29;20110;-79
2022/12/27 08:02:37;;;;;;;11.15;4.32;;;;;;;3.25;100.00;101368.94;4932158;29;20155;-80
2022/12/27 08:05:05;;;;;;;13.48;4.20;;;;;;;3.23;100.00;101362.84;4915840;29;20525;-79
2022/12/27 08:07:31;;;;;;;9.47;3.67;;;;;;;3.25;100.00;101377.03;4932997;29;20096;-79
2022/12/27 08:09:57;;;;;;;9.88;4.30;;;;;;;3.20;100.00;101371.22;4931764;29;20360;-81
2022/12/27 08:12:23;;;;;;;8.70;3.80;;;;;;;3.15;100.00;101371.69;4906256;29;20516;-81
2022/12/27 08:14:49;;;;;;;9.57;4.07;;;;;;;3.15;100.00;101373.50;4934219;29;20062;-81
2022/12/27 08:17:21;;;;;;;14.70;4.60;;;;;;;3.18;100.00;101384.00;4934211;29;20377;-80
2022/12/27 08:19:50;;;;;;;8.43;3.65;;;;;;;3.20;100.00;101384.72;4915979;29;20043;-79
2022/12/27 08:22:16;;;;;;;8.45;3.78;;;;;;;3.19;100.00;101372.22;4935043;29;20118;-80
2022/12/27 08:24:42;;;;;;;7.75;3.92;;;;;;;3.19;100.00;101380.31;4916826;29;20111;-81
2022/12/27 08:27:10;;;;;;;10.57;4.22;;;;;;;3.17;100.00;101390.38;4932883;29;20095;-81
2022/12/27 08:29:36;;;;;;;8.95;3.97;;;;;;;3.14;100.00;101396.94;4934369;29;20075;-80
2022/12/27 08:32:03;;;;;;;9.50;3.88;;;;;;;3.16;100.00;101411.13;4931459;29;20071;-81
2022/12/27 08:34:29;;;;;;;8.95;3.92;;;;;;;3.25;100.00;101408.53;4934389;29;20067;-81
2022/12/27 08:36:56;;;;;;;12.02;4.00;;;;;;;3.25;100.00;101420.19;4916473;29;20050;-80
2022/12/27 08:39:23;;;;;;;11.63;4.40;;;;;;;3.29;100.00;101409.91;4939779;29;20062;-81
2022/12/27 08:41:50;;;;;;;11.30;3.95;;;;;;;3.28;100.00;101419.00;4946266;29;20118;-80
2022/12/27 08:44:16;;;;;;;10.52;4.13;;;;;;;3.29;100.00;101420.69;4934941;29;20061;-79
2022/12/27 08:46:43;;;;;;;7.57;3.97;;;;;;;3.31;100.00;101419.56;4934481;29;20032;-80
2022/12/27 08:49:09;;;;;;;11.32;4.18;;;;;;;3.32;100.00;101425.81;4916193;29;20074;-80
2022/12/27 08:51:35;;;;;;;16.63;5.13;;;;;;;3.34;100.00;101428.34;4928234;29;20836;-82
2022/12/27 08:54:01;;;;;;;9.82;4.18;;;;;;;3.46;100.00;101424.47;4915829;29;20032;-81
2022/12/27 08:56:27;;;;;;;12.48;3.85;;;;;;;3.56;100.00;101435.19;4914703;29;20040;-78
2022/12/27 08:58:53;;;;;;;8.55;3.78;;;;;;;3.61;100.00;101441.00;4933533;29;20032;-78
2022/12/27 09:01:19;;;;;;;13.23;4.30;;;;;;;3.58;100.00;101439.44;4916551;29;20046;-78
2022/12/27 09:03:45;;;;;;;11.25;3.70;;;;;;;3.59;100.00;101448.41;4936687;29;20044;-78
2022/12/27 09:06:15;;;;;;;12.93;3.70;;;;;;;3.61;100.00;101446.41;4933069;29;20036;-79
2022/12/27 09:08:42;;;;;;;7.03;3.70;;;;;;;3.69;100.00;101440.22;4940540;29;20050;-80
2022/12/27 09:11:16;;;;;;;10.60;3.72;;;;;;;3.84;100.00;101451.34;4923059;29;20074;-81
2022/12/27 09:13:43;;;;;;;10.38;4.05;;;;;;;3.89;100.00;101449.88;4941628;29;20078;-80
2022/12/27 09:16:17;;;;;;;9.45;3.90;;;;;;;3.93;100.00;101442.34;4945826;29;20479;-80
2022/12/27 09:18:46;;;;;;;11.77;3.90;;;;;;;4.11;100.00;101438.78;4938853;29;20492;-81
2022/12/27 09:21:13;;;;;;;11.55;3.53;;;;;;;4.34;100.00;101447.28;4925412;29;20047;-81
2022/12/27 09:23:40;;;;;;;9.45;3.55;;;;;;;4.31;100.00;101442.19;4943122;29;20035;-80
2022/12/27 09:26:15;;;;;;;9.15;3.30;;;;;;;4.34;100.00;101452.66;4922504;29;20050;-80
2022/12/27 09:28:42;;;;;;;11.07;3.60;;;;;;;4.22;100.00;101459.31;4918708;29;20069;-81
2022/12/27 09:31:09;;;;;;;9.52;3.75;;;;;;;4.20;100.00;101447.81;4922484;29;20139;-80
2022/12/27 09:33:36;;;;;;;10.15;3.42;;;;;;;4.14;100.00;101447.44;4936772;29;20047;-83
2022/12/27 09:36:13;;;;;;;12.73;3.80;;;;;;;4.10;100.00;101461.38;4904215;29;20139;-82
2022/12/27 09:38:41;;;;;;;9.88;3.85;;;;;;;4.11;100.00;101466.66;4932826;29;20039;-83
2022/12/27 09:41:21;;;;;;;11.20;3.30;;;;;;;4.07;100.00;101467.97;4913449;29;20055;-82
2022/12/27 09:44:04;;;;;;;13.10;3.95;;;;;;;4.11;100.00;101477.44;4928187;29;20047;-85
2022/12/27 09:47:06;;;;;;;11.40;3.20;;;;;;;4.14;100.00;101477.13;4936057;29;20051;-85
2022/12/27 09:49:47;;;;;;;13.38;3.92;;;;;;;4.14;100.00;101484.41;4923666;29;20054;-84
2022/12/27 09:52:16;;;;;;;14.05;3.20;;;;;;;4.24;100.00;101473.50;4933957;29;20035;-83
2022/12/27 09:54:42;;;;;;;18.58;3.85;;;;;;;4.38;100.00;101475.66;4917204;29;20036;-83
2022/12/27 09:57:31;;;;;;;8.95;3.25;;;;;;;4.54;100.00;101479.53;4937471;29;20046;-85
2022/12/27 10:00:00;;;;;;;10.15;3.55;;;;;;;5.65;100.00;101482.53;4900030;29;20503;-84
2022/12/27 10:02:27;;;;;;;11.63;3.22;;;;;;;6.35;92.37;101481.34;4919959;29;20372;-85
2022/12/27 10:04:56;;;;;;;8.38;3.28;;;;;;;5.99;92.33;101479.75;4913836;29;20075;-82
2022/12/27 10:07:45;;;;;;;7.65;2.80;;;;;;;5.84;94.22;101484.09;4919084;29;20056;-84
2022/12/27 10:10:54;;;;;;;7.53;2.70;;;;;;;5.56;94.06;101481.66;4936626;29;20445;-85
2022/12/27 10:13:30;;;;;;;10.18;2.90;;;;;;;5.30;95.99;101488.81;4913321;29;20075;-82
2022/12/27 10:16:19;;;;;;;6.28;2.92;;;;;;;5.00;100.00;101495.56;4936838;29;20032;-86
2022/12/27 10:19:15;;;;;;;9.40;3.25;;;;;;;4.88;100.00;101501.22;4936347;29;20059;-86
2022/12/27 10:22:05;;;;;;;10.60;3.35;;;;;;;4.79;100.00;101504.03;4899720;29;20052;-82
2022/12/27 10:24:44;;;;;;;8.32;2.55;;;;;;;4.99;98.98;101500.09;4931568;29;20071;-85
2022/12/27 10:27:12;;;;;;;;;;;;;;;5.58;95.75;101487.75;4929984;29;20036;-83
2022/12/27 10:29:39;;;;;;;9.57;2.58;;;;;;;5.50;94.52;101479.59;4936884;29;19919;-86
2022/12/27 10:32:08;;;;;;;11.68;2.80;;;;;;;5.51;94.32;101492.13;4918529;29;20237;-86
2022/12/27 10:34:34;;;;;;;8.82;2.90;;;;;;;5.48;93.28;101482.44;4928409;29;20059;-84
2022/12/27 10:37:00;;;;;;;8.15;2.38;;;;;;;5.22;96.39;101486.03;4934548;29;20114;-82
2022/12/27 10:39:29;;;;;;;5.88;2.38;;;;;;;5.06;97.81;101496.78;4894230;29;20032;-84
2022/12/27 10:42:28;;;;;;;7.63;2.75;;;;;;;4.99;100.00;101500.09;4928258;29;20215;-83
2022/12/27 10:45:33;;;;;;;9.57;2.60;;;;;;;4.86;100.00;101499.69;4928833;29;20035;-84
2022/12/27 10:48:14;;;;;;;11.00;2.80;;;;;;;4.78;100.00;101499.66;4931100;29;20514;-82
2022/12/27 10:50:55;;;;;;;11.45;3.28;;;;;;;4.57;100.00;101511.63;4935066;29;20123;-83
2022/12/27 10:53:37;;;;;;;8.20;3.13;;;;;;;4.24;100.00;101504.06;4937100;29;20047;-86
2022/12/27 10:56:12;;;;;;;10.52;3.20;;;;;;;3.91;100.00;101508.28;4935408;29;20036;-82
2022/12/27 10:58:48;;;;;;;8.77;3.47;;;;;;;3.74;100.00;101521.59;4930025;29;20032;-84
2022/12/27 11:01:34;;;;;;;8.13;3.15;;;;;;;3.56;100.00;101518.81;4936774;29;20038;-83
2022/12/27 11:04:17;;;;;;;11.60;3.60;;;;;;;3.45;100.00;101517.19;4930906;29;20044;-84
2022/12/27 11:06:46;;;;;;;7.18;2.90;;;;;;;3.36;100.00;101539.66;4936917;29;20027;-84
2022/12/27 11:09:26;;;;;;;11.35;3.40;;;;;;;3.21;100.00;101518.56;4904696;29;20066;-84
2022/12/27 11:12:12;;;;;;;8.07;2.88;;;;;;;3.06;100.00;101512.78;4898015;29;20519;-83
2022/12/27 11:15:17;;;;;;;5.72;3.22;;;;;;;2.94;100.00;101517.50;4929436;29;20216;-84
2022/12/27 11:17:48;;;;;;;9.77;4.00;;;;;;;2.83;100.00;101512.25;4935664;29;20038;-84
2022/12/27 11:20:40;;;;;;;12.23;3.38;;;;;;;3.49;100.00;101505.09;4913256;29;20036;-83
2022/12/27 11:23:15;;;;;;;10.63;3.63;;;;;;;5.82;100.00;101507.78;4912917;29;20051;-83
2022/12/27 11:25:56;;;;;;;8.27;2.97;;;;;;;5.83;100.00;101513.03;4916877;29;20055;-83
2022/12/27 11:28:43;;;;;;;9.45;3.47;;;;;;;5.85;100.00;101502.03;4917904;29;20083;-82
2022/12/27 11:31:15;;;;;;;11.90;2.90;;;;;;;5.29;100.00;101510.59;4929751;29;20103;-83
2022/12/27 11:33:50;;;;;;;8.93;2.97;;;;;;;5.17;100.00;101512.75;4916612;29;20411;-84
2022/12/27 11:36:26;;;;;;;6.00;2.67;;;;;;;5.36;100.00;101519.78;4933540;29;20035;-84
2022/12/27 11:38:52;;;;;;;7.30;2.78;;;;;;;6.91;98.03;101507.78;4922598;29;20112;-84
2022/12/27 11:41:33;;;;;;;7.53;2.70;;;;;;;8.28;82.72;101495.00;4889954;29;20119;-85
2022/12/27 11:44:32;;;;;;;6.05;2.63;;;;;;;8.51;77.49;101492.28;4913787;29;20060;-85
2022/12/27 11:47:12;;;;;;;5.88;2.22;;;;;;;9.09;71.60;101482.75;4906233;29;20134;-85
2022/12/27 11:50:17;;;;;;;7.80;2.38;;;;;;;8.74;69.95;101481.38;4933729;29;20036;-83
2022/12/27 11:52:59;;;;;;;11.70;2.67;;;;;;;7.91;75.26;101500.16;4932840;29;20065;-84
2022/12/27 11:55:41;;;;;;;8.43;2.70;;;;;;;6.98;81.29;101513.34;4932621;29;20032;-84
2022/12/27 11:58:27;;;;;;;7.07;2.90;;;;;;;5.99;89.97;101520.38;4916257;29;20038;-84
2022/12/27 12:01:00;;;;;;;6.90;2.58;;;;;;;5.51;96.16;101525.44;4912052;29;20036;-82
2022/12/27 12:04:05;;;;;;;7.03;2.80;;;;;;;5.30;97.08;101512.31;4914807;29;20083;-82
2022/12/27 12:07:12;;;;;;;9.32;2.70;;;;;;;5.36;98.31;101517.06;4932346;29;20035;-84
2022/12/27 12:10:03;;;;;;;10.00;3.00;;;;;;;5.55;97.12;101529.50;4926228;29;20047;-82
2022/12/27 12:12:41;;;;;;;16.45;2.80;;;;;;;5.54;95.26;101527.81;4932857;29;20032;-82
2022/12/27 12:15:35;;;;;;;8.90;2.78;;;;;;;5.49;95.78;101510.38;4932534;29;20050;-84
2022/12/27 12:18:37;;;;;;;8.05;2.45;;;;;;;5.45;93.63;101532.34;4900105;29;20071;-83
2022/12/27 12:21:12;;;;;;;7.95;2.95;;;;;;;5.40;94.99;101520.31;4913696;29;20531;-83
2022/12/27 12:23:53;;;;;;;10.32;2.72;;;;;;;5.31;95.42;101533.81;4932290;29;20072;-83
2022/12/27 12:26:22;;;;;;;11.98;2.78;;;;;;;5.23;94.91;101536.44;4932338;29;20056;-83
2022/12/27 12:29:13;;;;;;;8.02;2.45;;;;;;;5.15;94.46;101536.41;4926176;29;20502;-83
2022/12/27 12:32:02;;;;;;;6.10;2.38;;;;;;;5.05;96.99;101536.50;4918799;29;20126;-82
2022/12/27 12:34:34;;;;;;;7.57;2.83;;;;;;;5.11;95.12;101543.13;4915111;29;20048;-82
2022/12/27 12:37:23;;;;;;;9.70;2.70;;;;;;;5.28;92.12;101544.91;4930844;29;20036;-82
2022/12/27 12:40:26;;;;;;;9.20;2.63;;;;;;;5.26;91.26;101549.66;4934928;29;20040;-83
2022/12/27 12:43:17;;;;;;;6.72;2.83;;;;;;;5.13;92.51;101547.38;4929078;29;20118;-82
2022/12/27 12:46:24;;;;;;;10.88;3.60;;;;;;;5.09;93.77;101543.28;4932604;29;20040;-82
2022/12/27 12:49:00;;;;;;;8.85;3.22;;;;;;;4.94;94.89;101540.31;4931103;29;20064;-82
2022/12/27 12:51:49;;;;;;;7.75;2.70;;;;;;;4.77;95.46;101539.34;4932760;29;20050;-83
2022/12/27 12:54:42;;;;;;;11.20;2.70;;;;;;;4.71;98.06;101543.50;4932211;29;20047;-84
2022/12/27 12:57:47;;;;;;;9.75;3.03;;;;;;;4.64;97.19;101531.63;4930533;29;20043;-84
2022/12/27 13:00:22;;;;;;;10.85;3.00;;;;;;;4.55;98.97;101546.91;4934297;29;20043;-84
2022/12/27 13:03:07;;;;;;;9.15;3.08;;;;;;;4.61;98.50;101532.78;4918309;29;20381;-84
2022/12/27 13:05:51;;;;;;;9.45;3.20;;;;;;;4.73;99.12;101535.25;4934914;29;20047;-84
2022/12/27 13:08:25;;;;;;;6.88;2.85;;;;;;;4.87;96.19;101529.25;4934181;29;20035;-84
2022/12/27 13:11:02;;;;;;;8.15;3.00;;;;;;;4.95;95.55;101527.66;4936344;29;20039;-83
2022/12/27 13:13:53;;;;;;;10.77;2.92;;;;;;;5.58;90.56;101515.66;4932458;29;20043;-82
2022/12/27 13:16:33;;;;;;;9.63;2.45;;;;;;;6.20;85.71;101508.25;4935689;29;20047;-83
2022/12/27 13:19:29;;;;;;;7.85;3.28;;;;;;;6.57;81.90;101487.09;4936216;29;20464;-82
2022/12/27 13:22:07;;;;;;;15.10;4.80;;;;;;;6.78;79.12;101478.47;4937020;29;20520;-83
2022/12/27 13:25:04;;;;;;;10.63;3.40;;;;;;;6.61;80.10;101493.88;4935862;29;20032;-82
2022/12/27 13:27:40;;;;;;;7.70;2.60;;;;;;;6.18;80.11;101488.59;4926141;29;20060;-83
2022/12/27 13:30:20;;;;;;;12.23;3.75;;;;;;;5.82;82.11;101507.78;4918306;29;20135;-80
2022/12/27 13:33:07;;;;;;;6.38;2.72;;;;;;;5.45;82.61;101499.03;4915630;29;20046;-83
2022/12/27 13:36:05;;;;;;;14.27;3.20;;;;;;;5.26;85.73;101503.66;4934216;29;20040;-83